Time;durP1;ratioP1;P1;durP2;ratioP2;P2;SDS_P1;SDS_P2;PMS_P1;PMS_P2;Temp;Humidity;BMP_temperature;BMP_pressure;BME280_temperature;BME280_humidity;BME280_pressure;Samples;Min_cycle;Max_cycle;Signal;HPM_P1;HPM_P2
2023/05/12 00:01:54;;;;;;;19.60;9.18;;;;;;;14.28;87.63;99683.81;4949602;28;20043;-92
2023/05/12 00:04:21;;;;;;;13.40;6.93;;;;;;;14.24;87.77;99680.63;4937816;28;20462;-92
2023/05/12 00:06:48;;;;;;;19.63;7.55;;;;;;;14.26;87.78;99675.94;4923167;28;20118;-90
2023/05/12 00:09:15;;;;;;;16.90;8.88;;;;;;;14.24;87.60;99683.28;4946888;28;20051;-93
2023/05/12 00:11:42;;;;;;;17.10;8.60;;;;;;;14.26;87.68;99680.47;4935146;28;20050;-91
2023/05/12 00:14:08;;;;;;;15.77;7.68;;;;;;;14.25;87.72;99673.47;4906281;28;20051;-92
2023/05/12 00:16:35;;;;;;;15.27;7.60;;;;;;;14.24;87.77;99672.59;4948103;28;20047;-91
2023/05/12 00:19:02;;;;;;;16.23;8.05;;;;;;;14.23;87.93;99670.09;4952021;28;20066;-91
2023/05/12 00:21:29;;;;;;;14.32;7.85;;;;;;;14.24;87.91;99679.78;4934971;28;20047;-92
2023/05/12 00:23:55;;;;;;;16.48;8.50;;;;;;;14.23;87.84;99678.94;4950434;28;20050;-91
2023/05/12 00:26:22;;;;;;;17.08;7.68;;;;;;;14.22;87.89;99669.28;4931763;28;20098;-92
2023/05/12 00:28:50;;;;;;;18.30;8.13;;;;;;;14.21;87.70;99661.41;4952811;28;20050;-91
2023/05/12 00:31:17;;;;;;;17.33;8.80;;;;;;;14.20;87.75;99660.59;4948184;28;20726;-92
2023/05/12 00:33:44;;;;;;;19.13;8.75;;;;;;;14.21;87.59;99664.09;4918953;28;20059;-92
2023/05/12 00:36:11;;;;;;;18.38;9.65;;;;;;;14.20;87.71;99663.25;4952274;28;20043;-91
2023/05/12 00:38:38;;;;;;;17.50;9.02;;;;;;;14.18;87.67;99664.44;4914965;28;20051;-93
2023/05/12 00:41:05;;;;;;;20.95;8.55;;;;;;;14.19;87.71;99660.75;4950191;28;20550;-91
2023/05/12 00:43:32;;;;;;;24.00;9.10;;;;;;;14.17;87.66;99657.41;4937164;28;20394;-92
2023/05/12 00:46:00;;;;;;;17.05;9.07;;;;;;;14.17;87.58;99652.91;4933239;28;20208;-91
2023/05/12 00:48:27;;;;;;;29.08;8.65;;;;;;;14.15;87.43;99659.41;4931879;28;20051;-90
2023/05/12 00:50:55;;;;;;;20.42;9.55;;;;;;;14.14;87.25;99653.22;4933211;28;20043;-93
2023/05/12 00:53:23;;;;;;;15.52;7.78;;;;;;;14.12;87.52;99657.91;4921258;28;20102;-93
2023/05/12 00:55:50;;;;;;;14.40;8.07;;;;;;;14.11;87.63;99651.72;4937062;28;20043;-91
2023/05/12 00:58:17;;;;;;;18.42;7.78;;;;;;;14.11;87.97;99649.03;4920432;28;20154;-92
2023/05/12 01:00:44;;;;;;;17.52;8.30;;;;;;;14.12;87.96;99649.91;4938766;28;20048;-92
2023/05/12 01:03:11;;;;;;;15.63;8.38;;;;;;;14.13;88.27;99651.56;4921774;28;20123;-92
2023/05/12 01:05:48;;;;;;;18.98;8.60;;;;;;;14.11;88.43;99653.53;4917381;28;20492;-91
2023/05/12 01:08:16;;;;;;;17.17;8.55;;;;;;;14.15;88.42;99656.75;4919668;28;20053;-92
2023/05/12 01:10:43;;;;;;;15.10;7.30;;;;;;;14.13;88.34;99656.06;4926493;28;25182;-91
2023/05/12 01:13:11;;;;;;;19.48;8.70;;;;;;;14.15;88.29;99654.91;4932933;28;20044;-94
2023/05/12 01:15:46;;;;;;;21.02;8.15;;;;;;;14.14;88.93;99657.72;4939339;28;20047;-92
2023/05/12 01:18:14;;;;;;;21.02;9.45;;;;;;;14.14;88.70;99658.56;4954644;28;20388;-92
2023/05/12 01:20:43;;;;;;;15.93;8.50;;;;;;;14.15;88.77;99652.22;4921012;28;20453;-92
2023/05/12 01:23:12;;;;;;;18.30;8.77;;;;;;;14.13;88.88;99648.06;4937263;28;20047;-91
2023/05/12 01:25:40;;;;;;;16.73;8.07;;;;;;;14.13;88.69;99645.38;4951427;28;20047;-92
2023/05/12 01:28:07;;;;;;;18.60;8.20;;;;;;;14.14;88.70;99645.19;4947057;28;20051;-91
2023/05/12 01:30:40;;;;;;;18.98;9.07;;;;;;;14.14;88.74;99647.88;4925142;28;20039;-91
2023/05/12 01:33:09;;;;;;;21.48;8.98;;;;;;;14.15;88.58;99649.56;4936078;28;20521;-93
2023/05/12 01:35:36;;;;;;;19.17;8.40;;;;;;;14.11;88.86;99641.03;4951034;28;20043;-91
2023/05/12 01:38:04;;;;;;;19.15;8.27;;;;;;;14.11;88.74;99643.69;4905081;28;20038;-91
2023/05/12 01:40:35;;;;;;;21.85;8.80;;;;;;;14.13;88.88;99642.72;4947831;28;20053;-90
2023/05/12 01:43:02;;;;;;;29.50;9.35;;;;;;;14.12;88.95;99641.88;4938719;28;20050;-92
2023/05/12 01:45:32;;;;;;;22.35;10.50;;;;;;;14.14;88.84;99652.38;4922309;28;20398;-92
2023/05/12 01:47:58;;;;;;;19.23;9.20;;;;;;;14.12;88.92;99647.22;4952968;28;20057;-92
2023/05/12 01:50:26;;;;;;;24.20;9.48;;;;;;;14.13;88.97;99650.72;4956095;28;20043;-93
2023/05/12 01:52:53;;;;;;;22.15;10.25;;;;;;;14.13;89.07;99661.41;4924625;28;20054;-92
2023/05/12 01:55:20;;;;;;;22.92;9.38;;;;;;;14.08;89.29;99662.72;4931295;28;20134;-91
2023/05/12 01:57:55;;;;;;;23.27;9.85;;;;;;;14.13;89.37;99672.09;4923025;28;20046;-91
2023/05/12 02:00:22;;;;;;;22.13;10.40;;;;;;;14.11;89.50;99659.72;4953404;28;20047;-92
2023/05/12 02:02:52;;;;;;;20.10;9.00;;;;;;;14.11;89.31;99661.56;4933553;28;20805;-91
2023/05/12 02:05:19;;;;;;;31.33;11.25;;;;;;;14.10;89.38;99663.41;4935551;28;20494;-91
2023/05/12 02:07:48;;;;;;;20.05;10.05;;;;;;;14.09;89.25;99659.06;4934438;28;20135;-92
2023/05/12 02:10:16;;;;;;;24.40;11.18;;;;;;;14.09;89.17;99667.06;4924482;28;20499;-89
2023/05/12 02:12:43;;;;;;;20.85;10.20;;;;;;;14.08;89.34;99665.38;4938096;28;20051;-90
2023/05/12 02:15:10;;;;;;;26.63;12.43;;;;;;;14.08;89.39;99664.56;4936533;28;20071;-92
2023/05/12 02:17:42;;;;;;;32.50;13.00;;;;;;;14.07;89.33;99662.91;4922470;28;20047;-93
2023/05/12 02:20:11;;;;;;;30.35;11.10;;;;;;;14.04;89.23;99658.72;4938427;28;20414;-91
2023/05/12 02:22:38;;;;;;;24.58;10.25;;;;;;;14.05;89.49;99657.72;4949589;28;20063;-93
2023/05/12 02:25:05;;;;;;;28.00;11.27;;;;;;;14.07;89.29;99662.91;4921721;28;20048;-91
2023/05/12 02:27:32;;;;;;;22.27;10.88;;;;;;;14.05;89.43;99665.72;4902355;28;20503;-91
2023/05/12 02:29:59;;;;;;;24.65;11.45;;;;;;;14.04;89.25;99661.38;4903075;28;20404;-91
2023/05/12 02:32:29;;;;;;;29.42;11.70;;;;;;;14.04;89.21;99665.88;4951024;28;20051;-92
2023/05/12 02:34:56;;;;;;;26.88;13.32;;;;;;;14.05;89.17;99662.22;4921650;28;20047;-91
2023/05/12 02:37:23;;;;;;;26.73;12.43;;;;;;;14.04;89.16;99663.19;4952026;28;20081;-92
2023/05/12 02:39:50;;;;;;;30.75;12.68;;;;;;;14.03;89.28;99662.38;4920822;28;20098;-92
2023/05/12 02:42:17;;;;;;;31.25;13.07;;;;;;;14.04;89.10;99661.38;4954547;28;20047;-92
2023/05/12 02:44:44;;;;;;;36.72;13.32;;;;;;;14.02;89.23;99662.56;4918943;28;20050;-91
2023/05/12 02:47:11;;;;;;;31.05;12.45;;;;;;;14.00;89.44;99651.19;4920856;28;20043;-92
2023/05/12 02:49:38;;;;;;;29.42;12.35;;;;;;;14.00;89.64;99659.19;4919069;28;20590;-92
2023/05/12 02:52:05;;;;;;;33.78;13.20;;;;;;;13.99;89.45;99650.38;4951336;28;20066;-92
2023/05/12 02:54:32;;;;;;;27.20;12.18;;;;;;;14.01;89.58;99656.34;4969937;28;20043;-91
2023/05/12 02:57:03;;;;;;;27.33;12.02;;;;;;;13.99;89.33;99646.84;4935223;28;20134;-91
2023/05/12 02:59:31;;;;;;;30.52;12.48;;;;;;;13.97;89.21;99647.00;4949992;28;20054;-92
2023/05/12 03:01:57;;;;;;;34.17;14.18;;;;;;;14.00;89.05;99651.19;4900925;28;20142;-93
2023/05/12 03:04:24;;;;;;;31.63;12.45;;;;;;;13.98;89.09;99650.50;4934329;28;20044;-91
2023/05/12 03:06:51;;;;;;;29.88;11.98;;;;;;;13.97;89.19;99651.50;4930260;28;20447;-92
2023/05/12 03:09:18;;;;;;;31.58;13.52;;;;;;;13.96;88.78;99647.16;4921209;28;20227;-92
2023/05/12 03:11:45;;;;;;;38.03;13.77;;;;;;;13.91;89.03;99644.97;4930603;28;20130;-92
2023/05/12 03:14:11;;;;;;;34.17;13.27;;;;;;;13.92;89.11;99646.66;4935009;28;20050;-92
2023/05/12 03:16:39;;;;;;;32.70;13.73;;;;;;;13.93;89.40;99648.31;4904564;28;20050;-91
2023/05/12 03:19:06;;;;;;;33.78;13.82;;;;;;;13.95;89.34;99653.50;4903477;28;20055;-91
2023/05/12 03:21:33;;;;;;;26.55;12.32;;;;;;;13.96;89.08;99649.84;4929486;28;20962;-92
2023/05/12 03:24:00;;;;;;;31.50;12.52;;;;;;;13.96;89.85;99656.00;4946034;28;20063;-92
2023/05/12 03:26:27;;;;;;;34.35;12.45;;;;;;;13.96;89.90;99652.50;4932340;28;20059;-89
2023/05/12 03:28:54;;;;;;;32.13;11.77;;;;;;;13.96;90.07;99649.84;4930637;28;20126;-90
2023/05/12 03:31:21;;;;;;;29.52;14.38;;;;;;;13.95;89.82;99651.66;4936663;28;20418;-91
2023/05/12 03:33:48;;;;;;;26.77;12.02;;;;;;;13.95;90.19;99651.66;4948929;28;20058;-90
2023/05/12 03:36:15;;;;;;;34.58;14.05;;;;;;;13.95;90.25;99654.34;4916022;28;20126;-91
2023/05/12 03:38:42;;;;;;;29.55;12.07;;;;;;;13.95;90.47;99650.84;4950469;28;24564;-90
2023/05/12 03:41:12;;;;;;;29.50;12.50;;;;;;;13.92;90.37;99654.66;4919023;28;20071;-90
2023/05/12 03:43:39;;;;;;;30.80;12.18;;;;;;;13.93;90.59;99653.66;4932449;28;20490;-91
2023/05/12 03:46:06;;;;;;;30.90;13.13;;;;;;;13.93;90.64;99651.00;4966400;28;20047;-90
2023/05/12 03:48:33;;;;;;;25.23;10.85;;;;;;;13.93;90.60;99661.66;4916398;28;20106;-90
2023/05/12 03:51:00;;;;;;;33.78;12.73;;;;;;;13.92;90.21;99651.13;4926299;28;20055;-90
2023/05/12 03:53:27;;;;;;;28.20;12.75;;;;;;;13.95;90.46;99658.84;4953412;28;20061;-90
2023/05/12 03:55:53;;;;;;;31.58;13.80;;;;;;;13.92;90.34;99649.34;4935859;28;20059;-90
2023/05/12 03:58:24;;;;;;;23.33;11.55;;;;;;;13.93;90.27;99653.66;4917980;28;20836;-92
2023/05/12 04:00:51;;;;;;;29.60;12.77;;;;;;;13.92;90.45;99652.00;4926787;28;20142;-91
2023/05/12 04:03:18;;;;;;;27.83;11.90;;;;;;;13.92;90.49;99652.00;4947862;28;20050;-90
2023/05/12 04:05:45;;;;;;;30.63;13.55;;;;;;;13.90;90.15;99648.66;4951634;28;20074;-91
2023/05/12 04:08:12;;;;;;;28.38;12.27;;;;;;;13.89;90.56;99645.16;4909335;28;20108;-89
2023/05/12 04:10:39;;;;;;;28.70;12.73;;;;;;;13.93;90.26;99655.50;4921841;28;20109;-90
2023/05/12 04:13:07;;;;;;;30.52;12.07;;;;;;;13.93;90.40;99652.84;4919781;28;20047;-89
2023/05/12 04:15:34;;;;;;;25.45;10.48;;;;;;;13.95;90.57;99664.19;4944955;28;20047;-89
2023/05/12 04:18:02;;;;;;;26.38;10.75;;;;;;;13.91;90.38;99652.97;4947216;28;20786;-87
2023/05/12 04:20:29;;;;;;;22.48;10.40;;;;;;;13.90;90.45;99654.81;4934614;28;20039;-88
2023/05/12 04:22:56;;;;;;;22.67;11.40;;;;;;;13.90;90.44;99656.66;4962718;28;20106;-89
2023/05/12 04:25:23;;;;;;;28.55;10.75;;;;;;;13.92;90.28;99662.69;4931075;28;20075;-87
2023/05/12 04:27:49;;;;;;;29.38;10.90;;;;;;;13.90;90.13;99656.66;4917361;28;20063;-86
2023/05/12 04:30:16;;;;;;;23.30;10.88;;;;;;;13.93;89.52;99668.84;4949124;28;20051;-89
2023/05/12 04:32:44;;;;;;;21.65;10.25;;;;;;;13.89;89.48;99663.84;4915737;28;20059;-90
2023/05/12 04:35:11;;;;;;;29.40;11.20;;;;;;;13.89;89.78;99668.31;4922314;28;20126;-89
2023/05/12 04:37:38;;;;;;;28.58;11.80;;;;;;;13.91;89.48;99663.66;4951779;28;20489;-89
2023/05/12 04:40:07;;;;;;;26.20;10.38;;;;;;;13.88;89.44;99661.31;4932815;28;20058;-88
2023/05/12 04:42:35;;;;;;;25.55;10.75;;;;;;;13.89;89.92;99662.97;4964432;28;20079;-89
2023/05/12 04:45:12;;;;;;;27.45;11.32;;;;;;;13.90;90.31;99668.16;4951836;28;20102;-88
2023/05/12 04:47:39;;;;;;;24.17;11.02;;;;;;;13.89;90.39;99669.19;4916066;28;21137;-87
2023/05/12 04:50:06;;;;;;;26.92;10.90;;;;;;;13.90;90.24;99670.84;4929260;28;20047;-87
2023/05/12 04:52:33;;;;;;;24.25;9.27;;;;;;;13.90;89.82;99678.84;4934651;28;20146;-87
2023/05/12 04:55:00;;;;;;;21.70;10.02;;;;;;;13.90;89.92;99673.50;4916211;28;20051;-87
2023/05/12 04:57:27;;;;;;;27.55;10.38;;;;;;;13.90;89.99;99675.34;4933146;28;20383;-87
2023/05/12 04:59:55;;;;;;;19.13;9.95;;;;;;;13.90;89.95;99678.84;4928693;28;20051;-87
2023/05/12 05:02:23;;;;;;;22.58;10.60;;;;;;;13.90;89.88;99681.50;4937381;28;20044;-87
2023/05/12 05:04:51;;;;;;;32.65;10.80;;;;;;;13.89;90.04;99674.50;4938226;28;20043;-87
2023/05/12 05:07:20;;;;;;;30.63;9.80;;;;;;;13.89;89.99;99679.84;4913780;28;20558;-87
2023/05/12 05:09:47;;;;;;;17.63;8.50;;;;;;;13.89;90.27;99679.00;4947082;28;20121;-87
2023/05/12 05:12:14;;;;;;;23.27;10.00;;;;;;;13.90;90.48;99688.69;4920862;28;20042;-87
2023/05/12 05:14:40;;;;;;;25.35;9.68;;;;;;;13.95;90.01;99686.38;4931885;28;20071;-87
2023/05/12 05:17:08;;;;;;;19.65;9.30;;;;;;;13.92;89.96;99691.19;4918133;28;20047;-87
2023/05/12 05:19:34;;;;;;;23.73;10.40;;;;;;;13.90;89.91;99686.03;4954530;28;20131;-87
2023/05/12 05:22:21;;;;;;;18.27;8.43;;;;;;;13.89;90.06;99687.00;4946127;28;20059;-87
2023/05/12 05:24:48;;;;;;;17.88;8.57;;;;;;;13.88;90.05;99693.34;4914462;28;20046;-87
2023/05/12 05:27:15;;;;;;;20.58;8.85;;;;;;;13.88;89.58;99685.34;4917546;28;20466;-87
2023/05/12 05:29:42;;;;;;;20.65;9.52;;;;;;;13.88;89.24;99688.00;4918502;28;20555;-88
2023/05/12 05:32:09;;;;;;;27.25;9.48;;;;;;;13.86;89.05;99695.34;4927568;28;20046;-87
2023/05/12 05:34:36;;;;;;;21.90;9.23;;;;;;;13.87;88.92;99695.19;4933269;28;20402;-87
2023/05/12 05:37:02;;;;;;;21.60;9.20;;;;;;;13.85;89.22;99689.16;4914638;28;20052;-87
2023/05/12 05:39:29;;;;;;;26.05;9.88;;;;;;;13.84;89.07;99690.19;4950047;28;20046;-87
2023/05/12 05:41:56;;;;;;;25.67;10.52;;;;;;;13.82;89.18;99692.16;4919864;28;20085;-87
2023/05/12 05:44:24;;;;;;;28.98;10.73;;;;;;;13.84;88.62;99700.00;4964808;28;20162;-87
2023/05/12 05:46:52;;;;;;;24.33;10.38;;;;;;;13.80;89.16;99698.66;4932566;28;20051;-88
2023/05/12 05:49:18;;;;;;;30.58;11.88;;;;;;;13.80;89.31;99704.00;4950689;28;20705;-88
2023/05/12 05:51:46;;;;;;;30.52;11.40;;;;;;;13.80;89.29;99702.16;4935271;28;20942;-88
2023/05/12 05:54:14;;;;;;;29.88;12.10;;;;;;;13.78;89.42;99704.13;4935185;28;20159;-87
2023/05/12 05:56:41;;;;;;;24.48;11.70;;;;;;;13.80;89.44;99701.31;4934459;28;20495;-88
2023/05/12 05:59:08;;;;;;;28.65;11.25;;;;;;;13.80;89.28;99707.50;4921997;28;20126;-87
2023/05/12 06:01:35;;;;;;;29.30;11.35;;;;;;;13.80;89.61;99704.81;4918128;28;20054;-88
2023/05/12 06:04:02;;;;;;;26.40;11.80;;;;;;;13.82;89.75;99707.34;4966637;28;20786;-87
2023/05/12 06:06:29;;;;;;;23.90;10.98;;;;;;;13.82;89.54;99705.50;4933373;28;20054;-87
2023/05/12 06:08:56;;;;;;;28.75;12.25;;;;;;;13.83;89.25;99714.34;4937726;28;20142;-87
2023/05/12 06:11:23;;;;;;;33.55;14.35;;;;;;;13.83;89.13;99709.00;4963946;28;20070;-87
2023/05/12 06:13:50;;;;;;;29.02;12.82;;;;;;;13.81;89.08;99719.84;4935106;28;20042;-87
2023/05/12 06:16:17;;;;;;;32.38;13.80;;;;;;;13.83;89.21;99711.69;4958823;28;20134;-87
2023/05/12 06:18:45;;;;;;;27.60;12.57;;;;;;;13.82;89.86;99724.19;4951818;28;20083;-87
2023/05/12 06:21:11;;;;;;;36.45;12.73;;;;;;;13.81;90.00;99714.50;4934776;28;20043;-87
2023/05/12 06:23:38;;;;;;;27.33;11.70;;;;;;;13.82;90.41;99718.84;4968568;28;20442;-88
2023/05/12 06:26:06;;;;;;;33.40;13.15;;;;;;;13.81;89.67;99722.50;4950743;28;20066;-87
2023/05/12 06:28:33;;;;;;;36.95;13.68;;;;;;;13.81;90.35;99727.84;4938485;28;20067;-88
2023/05/12 06:31:00;;;;;;;29.42;13.20;;;;;;;13.78;90.01;99722.81;4954860;28;20135;-88
2023/05/12 06:33:27;;;;;;;29.02;12.63;;;;;;;13.82;90.25;99726.03;4933589;28;20055;-87
2023/05/12 06:35:54;;;;;;;36.67;13.40;;;;;;;13.81;90.25;99727.84;4936603;28;20053;-88
2023/05/12 06:38:21;;;;;;;34.38;13.63;;;;;;;13.83;90.01;99727.69;4934743;28;20051;-88
2023/05/12 06:40:47;;;;;;;32.25;13.60;;;;;;;13.82;90.49;99729.53;4917501;28;20051;-87
2023/05/12 06:43:14;;;;;;;31.10;13.55;;;;;;;13.84;89.76;99726.69;4952781;28;20046;-87
2023/05/12 06:45:43;;;;;;;37.38;12.73;;;;;;;13.83;89.96;99728.53;4957258;28;20450;-88
2023/05/12 06:48:10;;;;;;;37.00;14.35;;;;;;;13.85;90.06;99736.38;4949365;28;20089;-88
2023/05/12 06:50:37;;;;;;;42.78;16.40;;;;;;;13.85;90.23;99733.72;4967235;28;20479;-87
2023/05/12 06:53:05;;;;;;;36.55;14.18;;;;;;;13.85;90.30;99725.69;4935754;28;20411;-88
2023/05/12 06:55:32;;;;;;;35.75;13.32;;;;;;;13.88;89.85;99734.22;4917761;28;20098;-87
2023/05/12 06:57:58;;;;;;;35.47;15.23;;;;;;;13.88;89.85;99730.72;4950961;28;20403;-87
2023/05/12 07:00:25;;;;;;;34.17;13.68;;;;;;;13.90;90.05;99737.56;4942037;28;20050;-86
2023/05/12 07:02:52;;;;;;;32.20;14.23;;;;;;;13.90;90.52;99734.91;4942989;28;20050;-87
2023/05/12 07:05:19;;;;;;;34.17;14.27;;;;;;;13.92;90.25;99736.56;4936169;28;20102;-87
2023/05/12 07:07:46;;;;;;;39.22;14.75;;;;;;;13.97;90.56;99742.25;4915165;28;20495;-87
2023/05/12 07:10:13;;;;;;;33.30;13.82;;;;;;;13.97;91.07;99742.25;4935406;28;20051;-88
2023/05/12 07:12:40;;;;;;;35.85;13.90;;;;;;;13.99;90.12;99733.13;4947381;28;20051;-87
2023/05/12 07:15:07;;;;;;;31.67;15.52;;;;;;;13.98;90.83;99736.78;4914085;28;20325;-87
2023/05/12 07:17:34;;;;;;;34.67;15.18;;;;;;;14.00;89.43;99733.94;4945649;28;20054;-88
2023/05/12 07:20:03;;;;;;;29.92;14.95;;;;;;;14.00;89.32;99729.44;4906931;28;20047;-87
2023/05/12 07:22:31;;;;;;;42.15;17.08;;;;;;;14.03;89.53;99730.94;4933438;28;20043;-87
2023/05/12 07:24:58;;;;;;;36.40;16.35;;;;;;;14.02;89.36;99732.78;4938691;28;20066;-87
2023/05/12 07:27:25;;;;;;;43.22;15.85;;;;;;;14.07;89.54;99732.31;4935391;28;20052;-88
2023/05/12 07:29:53;;;;;;;36.45;16.30;;;;;;;14.10;89.69;99732.81;4914112;28;20105;-87
2023/05/12 07:32:19;;;;;;;37.67;16.23;;;;;;;14.11;89.92;99733.66;4954766;28;20057;-87
2023/05/12 07:34:47;;;;;;;43.80;17.90;;;;;;;14.09;90.09;99733.84;4971304;28;20078;-87
2023/05/12 07:37:13;;;;;;;37.25;15.27;;;;;;;14.14;89.70;99735.16;4965209;28;20125;-88
2023/05/12 07:39:40;;;;;;;31.50;14.63;;;;;;;14.15;89.41;99723.50;4947597;28;20070;-87
2023/05/12 07:42:07;;;;;;;32.40;14.90;;;;;;;14.20;89.20;99727.34;4937030;28;20051;-87
2023/05/12 07:44:35;;;;;;;34.90;15.07;;;;;;;14.21;89.28;99725.50;4965145;28;20051;-87
2023/05/12 07:47:01;;;;;;;47.35;17.15;;;;;;;14.26;88.53;99729.38;4948429;28;20577;-87
2023/05/12 07:49:28;;;;;;;40.10;16.58;;;;;;;14.28;88.49;99723.88;4949678;28;20047;-88
2023/05/12 07:51:55;;;;;;;40.10;15.27;;;;;;;14.32;87.52;99725.19;4933127;28;20089;-87
2023/05/12 07:54:21;;;;;;;35.42;14.18;;;;;;;14.29;87.28;99726.38;4953470;28;20611;-87
2023/05/12 07:56:48;;;;;;;29.75;13.85;;;;;;;14.29;86.66;99720.19;4950147;28;20047;-87
2023/05/12 07:59:15;;;;;;;31.13;15.43;;;;;;;14.34;86.71;99729.38;4947933;28;20145;-87
2023/05/12 08:01:42;;;;;;;34.05;14.63;;;;;;;14.30;86.95;99729.91;4934531;28;20055;-87
2023/05/12 08:04:09;;;;;;;37.08;14.75;;;;;;;14.33;87.54;99732.22;4948470;28;20071;-87
2023/05/12 08:06:36;;;;;;;30.35;14.10;;;;;;;14.38;88.00;99721.06;4931716;28;20451;-87
2023/05/12 08:09:03;;;;;;;26.48;12.10;;;;;;;14.37;87.49;99720.22;4950605;28;20056;-87
2023/05/12 08:11:30;;;;;;;25.38;12.05;;;;;;;14.47;87.71;99728.09;4934899;28;20047;-87
2023/05/12 08:13:56;;;;;;;29.13;14.43;;;;;;;14.49;87.27;99731.44;4931266;28;20427;-87
2023/05/12 08:16:23;;;;;;;30.40;12.50;;;;;;;14.50;87.38;99722.41;4953120;28;20552;-88
2023/05/12 08:18:50;;;;;;;28.73;12.98;;;;;;;14.52;87.67;99728.44;4965119;28;20050;-87
2023/05/12 08:21:17;;;;;;;31.23;13.25;;;;;;;14.51;87.09;99732.94;4902557;28;20043;-88
2023/05/12 08:23:43;;;;;;;33.88;13.27;;;;;;;14.47;86.55;99726.25;4933058;28;20047;-88
2023/05/12 08:26:10;;;;;;;26.58;12.95;;;;;;;14.40;86.10;99730.59;4935547;28;20491;-88
2023/05/12 08:28:37;;;;;;;26.98;13.07;;;;;;;14.37;86.33;99724.72;4953612;28;20050;-88
2023/05/12 08:31:04;;;;;;;28.02;13.27;;;;;;;14.37;86.65;99728.22;4954784;28;20051;-87
2023/05/12 08:33:33;;;;;;;31.70;13.77;;;;;;;14.36;86.43;99728.41;4949641;28;20392;-87
2023/05/12 08:36:00;;;;;;;32.90;13.65;;;;;;;14.34;87.24;99733.91;4945798;28;20089;-87
2023/05/12 08:38:27;;;;;;;30.17;13.68;;;;;;;14.30;86.22;99736.06;4951585;28;20050;-88
2023/05/12 08:41:20;;;;;;;36.90;14.10;;;;;;;14.25;85.99;99738.38;4949426;28;20403;-87
2023/05/12 08:43:51;;;;;;;25.27;13.75;;;;;;;14.30;86.13;99744.09;4944121;28;20043;-87
2023/05/12 08:46:19;;;;;;;35.50;14.88;;;;;;;14.29;86.62;99741.56;4934731;28;20063;-87
2023/05/12 08:48:48;;;;;;;25.90;13.02;;;;;;;14.29;85.86;99742.38;4947705;28;20043;-87
2023/05/12 08:51:17;;;;;;;29.63;13.18;;;;;;;14.30;86.15;99743.25;4936659;28;20035;-87
2023/05/12 08:53:46;;;;;;;25.83;12.50;;;;;;;14.33;86.35;99740.25;4951820;28;20047;-87
2023/05/12 08:56:14;;;;;;;32.17;14.02;;;;;;;14.41;86.68;99734.94;4946982;28;20725;-87
2023/05/12 08:58:44;;;;;;;32.35;13.65;;;;;;;14.44;86.38;99742.59;4906416;28;20407;-88
2023/05/12 09:01:13;;;;;;;25.50;13.10;;;;;;;14.48;86.27;99743.97;4932319;28;20075;-87
2023/05/12 09:03:40;;;;;;;30.08;13.27;;;;;;;14.48;85.19;99743.97;4944354;28;20054;-88
2023/05/12 09:06:08;;;;;;;28.88;12.80;;;;;;;14.48;84.85;99740.47;4932010;28;20035;-88
2023/05/12 09:08:35;;;;;;;25.70;12.32;;;;;;;14.51;84.62;99743.63;4934272;28;20388;-88
2023/05/12 09:11:02;;;;;;;22.95;11.27;;;;;;;14.57;84.87;99749.34;4929835;28;20049;-88
2023/05/12 09:13:51;;;;;;;25.40;12.10;;;;;;;14.64;85.21;99745.03;4934550;28;20106;-88
2023/05/12 09:16:22;;;;;;;20.80;10.60;;;;;;;14.71;85.48;99743.38;4930500;28;20054;-87
2023/05/12 09:18:54;;;;;;;24.90;11.40;;;;;;;14.76;85.58;99751.75;4945492;28;20126;-87
2023/05/12 09:21:21;;;;;;;24.85;12.38;;;;;;;14.82;85.36;99742.22;4966698;28;20071;-88
2023/05/12 09:23:58;;;;;;;24.08;12.18;;;;;;;14.77;85.46;99740.88;4952440;28;20047;-87
2023/05/12 09:26:26;;;;;;;25.88;13.35;;;;;;;14.80;85.87;99744.22;4953116;28;20406;-88
2023/05/12 09:28:55;;;;;;;29.75;12.98;;;;;;;14.82;85.70;99745.72;4953261;28;20055;-87
2023/05/12 09:31:23;;;;;;;30.05;13.65;;;;;;;14.76;85.43;99751.75;4949149;28;20055;-87
2023/05/12 09:33:50;;;;;;;27.13;12.95;;;;;;;14.82;85.26;99748.41;4939043;28;20055;-87
2023/05/12 09:36:18;;;;;;;32.88;13.25;;;;;;;14.82;85.51;99747.56;4906086;28;20562;-87
2023/05/12 09:38:44;;;;;;;26.75;13.52;;;;;;;14.81;86.47;99754.75;4933605;28;20512;-88
2023/05/12 09:41:11;;;;;;;30.60;13.93;;;;;;;14.81;85.92;99738.72;4934155;28;20046;-88
2023/05/12 09:43:44;;;;;;;30.20;14.30;;;;;;;14.77;85.09;99750.72;4932091;28;20075;-87
2023/05/12 09:46:11;;;;;;;;;;;;;;;14.58;83.87;99745.66;4949867;28;20495;-87
2023/05/12 09:48:38;;;;;;;37.25;13.73;;;;;;;14.73;84.76;99755.56;4949839;28;19933;-87
2023/05/12 09:51:08;;;;;;;24.77;11.48;;;;;;;14.71;83.52;99752.22;4967009;28;20134;-87
2023/05/12 09:53:41;;;;;;;27.55;13.07;;;;;;;14.76;82.78;99749.91;4920616;28;20118;-88
2023/05/12 09:56:09;;;;;;;26.30;12.80;;;;;;;14.83;83.26;99742.03;4956233;28;20050;-88
2023/05/12 09:58:38;;;;;;;29.27;12.98;;;;;;;14.92;83.64;99741.06;4918392;28;20051;-87
2023/05/12 10:01:05;;;;;;;28.15;12.68;;;;;;;15.04;83.82;99740.75;4950445;28;20054;-87
2023/05/12 10:03:51;;;;;;;27.48;12.73;;;;;;;15.08;83.42;99747.41;4942699;28;20046;-88
2023/05/12 10:06:27;;;;;;;25.95;12.57;;;;;;;15.09;82.28;99733.06;4933384;28;20087;-87
2023/05/12 10:08:59;;;;;;;29.33;13.05;;;;;;;15.15;82.19;99733.19;4952799;28;20058;-88
2023/05/12 10:11:27;;;;;;;24.30;11.60;;;;;;;15.19;82.72;99739.06;4965085;28;20408;-88
2023/05/12 10:13:53;;;;;;;24.30;10.93;;;;;;;15.22;83.12;99733.38;4949617;28;20047;-87
2023/05/12 10:16:20;;;;;;;25.75;10.75;;;;;;;15.26;83.62;99737.38;4968692;28;20452;-88
2023/05/12 10:18:49;;;;;;;23.00;12.30;;;;;;;15.24;82.65;99734.03;4955321;28;20039;-88
2023/05/12 10:21:16;;;;;;;26.95;13.73;;;;;;;15.26;81.73;99739.22;4918083;28;20405;-87
2023/05/12 10:23:43;;;;;;;34.92;12.55;;;;;;;15.29;82.49;99741.53;4936630;28;20074;-88
2023/05/12 10:26:10;;;;;;;28.88;12.23;;;;;;;15.29;80.90;99736.19;4951960;28;20200;-88
2023/05/12 10:28:37;;;;;;;24.35;11.32;;;;;;;15.28;80.68;99747.91;4949538;28;20059;-87
2023/05/12 10:31:06;;;;;;;21.20;10.48;;;;;;;15.24;79.17;99749.25;4922954;28;20039;-87
2023/05/12 10:33:32;;;;;;;24.95;11.85;;;;;;;15.29;78.75;99738.88;4965228;28;20091;-87
2023/05/12 10:35:59;;;;;;;20.63;11.68;;;;;;;15.34;79.45;99740.06;4950675;28;20048;-88
2023/05/12 10:38:34;;;;;;;20.13;9.63;;;;;;;15.34;79.18;99742.72;4928960;28;20480;-87
2023/05/12 10:41:04;;;;;;;21.77;11.00;;;;;;;15.45;79.00;99748.75;4943201;28;20049;-87
2023/05/12 10:43:42;;;;;;;24.25;11.52;;;;;;;15.40;76.11;99743.88;4943397;28;20050;-87
2023/05/12 10:46:11;;;;;;;21.45;11.07;;;;;;;15.42;77.83;99744.56;4952001;28;20042;-87
2023/05/12 10:49:02;;;;;;;22.60;11.23;;;;;;;15.37;78.08;99745.06;4951797;28;20075;-87
2023/05/12 10:51:33;;;;;;;24.50;12.73;;;;;;;15.46;78.69;99743.19;4937717;28;20053;-87
2023/05/12 10:54:02;;;;;;;21.33;10.85;;;;;;;15.46;78.20;99745.03;4932298;28;20043;-87
2023/05/12 10:56:41;;;;;;;23.15;11.32;;;;;;;15.48;78.03;99745.72;4947557;28;20539;-87
2023/05/12 10:59:22;;;;;;;22.77;9.93;;;;;;;15.42;77.95;99736.53;4950364;28;20402;-87
2023/05/12 11:01:58;;;;;;;20.35;10.73;;;;;;;15.48;77.80;99737.69;4948323;28;20490;-87
2023/05/12 11:04:49;;;;;;;24.48;10.13;;;;;;;15.47;76.70;99739.53;4929302;28;20050;-88
2023/05/12 11:07:23;;;;;;;20.85;10.48;;;;;;;15.66;78.72;99738.31;4951358;28;20046;-88
2023/05/12 11:09:50;;;;;;;19.17;10.18;;;;;;;15.71;79.28;99738.66;4933125;28;20648;-88
2023/05/12 11:12:26;;;;;;;17.27;9.18;;;;;;;15.77;78.17;99737.13;4933526;28;20055;-87
2023/05/12 11:14:53;;;;;;;16.30;8.07;;;;;;;15.81;78.07;99727.78;4953008;28;20073;-87
2023/05/12 11:17:20;;;;;;;20.48;9.88;;;;;;;15.85;77.82;99747.84;4935509;28;20039;-88
2023/05/12 11:19:48;;;;;;;18.40;9.95;;;;;;;15.79;76.65;99744.00;4947936;28;20106;-88
2023/05/12 11:22:20;;;;;;;19.60;9.63;;;;;;;15.71;75.30;99754.72;4933615;28;20134;-87
2023/05/12 11:24:47;;;;;;;23.55;9.73;;;;;;;15.63;75.47;99747.53;4913728;28;20043;-88